createdAt,value
2023-04-21T00:01:02.228Z,97708.40
2023-04-21T00:03:38.856Z,97707.64
2023-04-21T00:06:11.817Z,97705.30
2023-04-21T00:08:44.615Z,97709.97
2023-04-21T00:11:17.075Z,97708.16
2023-04-21T00:13:49.799Z,97706.73
2023-04-21T00:16:31.662Z,97704.48
2023-04-21T00:19:07.559Z,97701.49
2023-04-21T00:21:45.226Z,97700.39
2023-04-21T00:24:37.727Z,97696.55
2023-04-21T00:27:11.859Z,97692.91
2023-04-21T00:29:45.854Z,97691.39
2023-04-21T00:32:18.369Z,97697.35
2023-04-21T00:34:51.199Z,97693.33
2023-04-21T00:37:24.448Z,97689.56
2023-04-21T00:39:57.317Z,97686.86
2023-04-21T00:42:30.065Z,97688.83
2023-04-21T00:45:02.764Z,97691.59
2023-04-21T00:47:36.630Z,97688.73
2023-04-21T00:50:10.270Z,97688.73
2023-04-21T00:52:47.387Z,97692.21
2023-04-21T00:55:20.382Z,97694.48
2023-04-21T00:57:55.487Z,97692.39
2023-04-21T01:00:28.489Z,97697.68
2023-04-21T01:03:03.456Z,97699.85
2023-04-21T01:05:36.673Z,97696.29
2023-04-21T01:08:10.229Z,97696.58
2023-04-21T01:10:41.280Z,97692.65
2023-04-21T01:13:13.928Z,97690.20
2023-04-21T01:15:46.894Z,97685.55
2023-04-21T01:18:20.381Z,97688.19
2023-04-21T01:20:54.505Z,97680.73
2023-04-21T01:23:27.409Z,97682.17
2023-04-21T01:26:00.266Z,97685.17
2023-04-21T01:28:32.732Z,97683.43
2023-04-21T01:31:06.111Z,97683.80
2023-04-21T01:33:38.741Z,97680.48
2023-04-21T01:36:12.549Z,97680.80
2023-04-21T01:38:45.896Z,97682.60
2023-04-21T01:41:20.163Z,97685.55
2023-04-21T01:43:52.772Z,97686.33
2023-04-21T01:46:25.568Z,97680.04
2023-04-21T01:48:58.152Z,97688.06
2023-04-21T01:51:31.776Z,97684.45
2023-04-21T01:54:04.990Z,97682.02
2023-04-21T01:56:38.225Z,97683.70
2023-04-21T01:59:11.002Z,97682.02
2023-04-21T02:01:45.432Z,97683.67
2023-04-21T02:04:18.272Z,97687.52
2023-04-21T02:06:51.560Z,97691.14
2023-04-21T02:09:24.069Z,97687.06
2023-04-21T02:12:00.940Z,97684.20
2023-04-21T02:14:33.622Z,97683.56
2023-04-21T02:17:06.532Z,97682.65
2023-04-21T02:19:39.293Z,97685.45
2023-04-21T02:22:13.463Z,97684.82
2023-04-21T02:24:46.385Z,97686.36
2023-04-21T02:27:19.162Z,97685.33
2023-04-21T02:29:52.268Z,97684.33
2023-04-21T02:32:26.206Z,97684.31
2023-04-21T02:34:59.278Z,97681.39
2023-04-21T02:37:33.592Z,97683.84
2023-04-21T02:40:07.104Z,97679.73
2023-04-21T02:42:40.157Z,97683.16
2023-04-21T02:45:15.013Z,97680.14
2023-04-21T02:47:47.810Z,97680.58
2023-04-21T02:50:20.480Z,97684.70
2023-04-21T02:52:53.381Z,97684.20
2023-04-21T02:55:26.609Z,97690.23
2023-04-21T02:57:59.370Z,97688.56
2023-04-21T03:00:32.597Z,97687.89
2023-04-21T03:03:05.737Z,97683.73
2023-04-21T03:05:38.694Z,97685.48
2023-04-21T03:08:11.972Z,97685.66
2023-04-21T03:10:44.855Z,97682.79
2023-04-21T03:13:18.202Z,97680.98
2023-04-21T03:15:51.212Z,97677.63
2023-04-21T03:18:23.956Z,97675.63
2023-04-21T03:21:03.140Z,97677.92
2023-04-21T03:23:35.720Z,97675.44
2023-04-21T03:26:12.291Z,97677.19
2023-04-21T03:28:45.883Z,97679.64
2023-04-21T03:31:18.958Z,97675.75
2023-04-21T03:33:51.821Z,97680.39
2023-04-21T03:36:25.451Z,97681.44
2023-04-21T03:39:05.971Z,97681.52
2023-04-21T03:41:45.803Z,97682.91
2023-04-21T03:44:18.418Z,97683.62
2023-04-21T03:46:54.116Z,97684.42
2023-04-21T03:49:28.302Z,97681.33
2023-04-21T03:52:00.987Z,97683.37
2023-04-21T03:54:35.143Z,97686.80
2023-04-21T03:57:07.907Z,97684.91
2023-04-21T03:59:40.663Z,97683.66
2023-04-21T04:02:13.652Z,97687.07
2023-04-21T04:04:47.264Z,97689.48
2023-04-21T04:07:18.092Z,97687.24
2023-04-21T04:09:50.831Z,97690.52
2023-04-21T04:12:57.986Z,97693.08
2023-04-21T04:15:30.843Z,97696.86
2023-04-21T04:18:03.516Z,97697.23
2023-04-21T04:20:37.102Z,97701.02
2023-04-21T04:23:09.703Z,97698.77
2023-04-21T04:25:43.122Z,97704.42
2023-04-21T04:28:15.870Z,97704.36
2023-04-21T04:30:51.114Z,97706.19
2023-04-21T04:33:23.882Z,97708.02
2023-04-21T04:35:57.240Z,97708.79
2023-04-21T04:38:30.716Z,97715.43
2023-04-21T04:41:03.512Z,97720.46
2023-04-21T04:43:39.062Z,97717.44
2023-04-21T04:46:13.535Z,97722.66
2023-04-21T04:48:46.108Z,97724.90
2023-04-21T04:51:19.052Z,97718.05
2023-04-21T04:53:52.124Z,97722.73
2023-04-21T04:56:25.188Z,97722.55
2023-04-21T04:58:58.160Z,97723.59
2023-04-21T05:01:31.953Z,97726.12
2023-04-21T05:04:03.294Z,97722.77
2023-04-21T05:06:36.123Z,97722.05
2023-04-21T05:09:11.423Z,97721.92
2023-04-21T05:11:44.177Z,97715.40
2023-04-21T05:14:17.521Z,97721.54
2023-04-21T05:16:50.467Z,97721.34
2023-04-21T05:19:23.235Z,97719.38
2023-04-21T05:22:01.158Z,97718.24
2023-04-21T05:24:34.712Z,97717.41
2023-04-21T05:27:08.433Z,97716.59
2023-04-21T05:29:42.502Z,97719.70
2023-04-21T05:32:15.792Z,97717.36
2023-04-21T05:34:48.488Z,97717.14
2023-04-21T05:37:21.079Z,97716.51
2023-04-21T05:39:55.140Z,97712.42
2023-04-21T05:42:27.773Z,97711.88
2023-04-21T05:45:00.272Z,97709.42
2023-04-21T05:47:33.211Z,97711.09
2023-04-21T05:50:06.115Z,97713.63
2023-04-21T05:52:39.514Z,97712.22
2023-04-21T05:55:12.762Z,97711.10
2023-04-21T05:57:46.197Z,97707.46
2023-04-21T06:00:20.326Z,97709.08
2023-04-21T06:02:53.501Z,97707.52
2023-04-21T06:05:27.071Z,97707.77
2023-04-21T06:07:59.922Z,97709.30
2023-04-21T06:10:32.641Z,97709.86
2023-04-21T06:13:05.360Z,97709.90
2023-04-21T06:15:38.055Z,97711.15
2023-04-21T06:18:11.316Z,97712.44
2023-04-21T06:20:51.690Z,97711.10
2023-04-21T06:23:24.867Z,97711.48
2023-04-21T06:26:09.055Z,97713.34
2023-04-21T06:28:41.746Z,97714.39
2023-04-21T06:31:15.915Z,97715.38
2023-04-21T06:33:49.125Z,97714.13
2023-04-21T06:36:22.111Z,97717.96
2023-04-21T06:38:55.072Z,97717.79
2023-04-21T06:41:27.767Z,97711.80
2023-04-21T06:44:00.798Z,97714.45
2023-04-21T06:46:34.041Z,97715.95
2023-04-21T06:49:07.857Z,97714.29
2023-04-21T06:51:40.926Z,97714.45
2023-04-21T06:54:13.614Z,97716.35
2023-04-21T06:56:47.006Z,97715.84
2023-04-21T06:59:17.774Z,97713.95
2023-04-21T07:01:52.686Z,97714.00
2023-04-21T07:04:30.382Z,97717.64
2023-04-21T07:07:03.497Z,97716.23
2023-04-21T07:09:36.322Z,97712.65
2023-04-21T07:12:09.752Z,97717.19
2023-04-21T07:14:42.591Z,97713.91
2023-04-21T07:17:15.362Z,97715.80
2023-04-21T07:19:48.021Z,97712.52
2023-04-21T07:22:22.365Z,97715.63
2023-04-21T07:24:55.814Z,97713.69
2023-04-21T07:27:28.675Z,97713.63
2023-04-21T07:30:03.999Z,97713.09
2023-04-21T07:32:39.067Z,97715.64
2023-04-21T07:35:12.973Z,97714.46
2023-04-21T07:37:45.498Z,97714.20
2023-04-21T07:40:18.536Z,97717.47
2023-04-21T07:42:51.369Z,97716.20
2023-04-21T07:45:24.662Z,97713.92
2023-04-21T07:48:00.965Z,97714.79
2023-04-21T07:50:36.097Z,97713.53
2023-04-21T07:53:08.891Z,97714.83
2023-04-21T07:55:42.052Z,97716.96
2023-04-21T07:58:17.370Z,97712.36
2023-04-21T08:00:52.868Z,97715.59
2023-04-21T08:03:28.678Z,97711.61
2023-04-21T08:06:02.235Z,97710.60
2023-04-21T08:08:35.482Z,97711.48
2023-04-21T08:11:09.759Z,97717.13
2023-04-21T08:13:43.467Z,97715.32
2023-04-21T08:16:16.112Z,97715.09
2023-04-21T08:18:48.699Z,97709.95
2023-04-21T08:21:21.848Z,97710.60
2023-04-21T08:23:55.677Z,97713.46
2023-04-21T08:26:30.770Z,97705.13
2023-04-21T08:29:04.675Z,97706.27
2023-04-21T08:31:37.874Z,97706.92
2023-04-21T08:34:10.430Z,97700.75
2023-04-21T08:36:45.428Z,97704.94
2023-04-21T08:39:18.782Z,97705.23
2023-04-21T08:41:52.845Z,97702.92
2023-04-21T08:44:26.024Z,97705.07
2023-04-21T08:46:57.474Z,97707.07
2023-04-21T08:49:34.650Z,97703.98
2023-04-21T08:52:07.541Z,97697.70
2023-04-21T08:54:40.550Z,97699.08
2023-04-21T08:57:15.916Z,97694.16
2023-04-21T08:59:49.484Z,97694.45
2023-04-21T09:02:24.182Z,97698.59
2023-04-21T09:04:58.059Z,97694.83
2023-04-21T09:07:40.283Z,97689.25
2023-04-21T09:10:13.509Z,97686.13
2023-04-21T09:12:44.322Z,97687.85
2023-04-21T09:15:17.088Z,97689.30
2023-04-21T09:17:56.766Z,97686.95
2023-04-21T09:20:29.799Z,97683.26
2023-04-21T09:23:06.231Z,97681.42
2023-04-21T09:25:41.484Z,97679.35
2023-04-21T09:28:16.982Z,97678.36
2023-04-21T09:30:49.532Z,97676.46
2023-04-21T09:33:30.723Z,97675.81
2023-04-21T09:36:07.052Z,97670.39
2023-04-21T09:38:40.572Z,97670.41
2023-04-21T09:41:13.155Z,97672.64
2023-04-21T09:43:45.973Z,97670.19
2023-04-21T09:46:20.425Z,97675.23
2023-04-21T09:48:54.901Z,97672.77
2023-04-21T09:51:42.827Z,97672.49
2023-04-21T09:57:02.078Z,97673.51
2023-04-21T09:59:38.872Z,97666.70
2023-04-21T10:02:13.552Z,97662.09
2023-04-21T10:05:21.976Z,97663.02
2023-04-21T10:08:07.832Z,97663.70
2023-04-21T10:10:41.464Z,97660.78
2023-04-21T10:13:19.070Z,97649.88
2023-04-21T10:16:03.188Z,97650.94
2023-04-21T10:18:44.329Z,97650.86
2023-04-21T10:21:22.336Z,97651.03
2023-04-21T10:23:55.767Z,97649.68
2023-04-21T10:26:34.487Z,97650.45
2023-04-21T10:29:08.312Z,97650.44
2023-04-21T10:31:52.386Z,97648.55
2023-04-21T10:34:36.998Z,97638.47
2023-04-21T10:37:20.902Z,97638.42
2023-04-21T10:40:02.586Z,97645.13
2023-04-21T10:42:39.508Z,97640.29
2023-04-21T10:45:14.422Z,97641.23
2023-04-21T10:47:50.111Z,97637.15
2023-04-21T10:50:26.175Z,97635.95
2023-04-21T10:53:11.591Z,97637.20
2023-04-21T10:55:44.157Z,97630.02
2023-04-21T10:58:23.323Z,97634.72
2023-04-21T11:00:59.601Z,97630.41
2023-04-21T11:03:38.384Z,97637.63
2023-04-21T11:06:20.782Z,97632.67
2023-04-21T11:09:04.099Z,97631.05
2023-04-21T11:11:37.981Z,97624.62
2023-04-21T11:14:10.592Z,97620.62
2023-04-21T11:16:46.597Z,97613.63
2023-04-21T11:19:21.006Z,97617.23
2023-04-21T11:21:54.697Z,97614.60
2023-04-21T11:24:27.970Z,97612.39
2023-04-21T11:27:02.390Z,97608.63
2023-04-21T11:29:36.985Z,97609.61
2023-04-21T11:32:11.357Z,97609.63
2023-04-21T11:34:44.895Z,97606.56
2023-04-21T11:37:25.741Z,97595.71
2023-04-21T11:40:06.659Z,97602.42
2023-04-21T11:42:39.366Z,97604.23
2023-04-21T11:45:22.418Z,97605.39
2023-04-21T11:48:16.392Z,97601.59
2023-04-21T11:50:52.407Z,97596.96
2023-04-21T11:53:25.066Z,97598.58
2023-04-21T11:55:58.169Z,97595.07
2023-04-21T11:58:30.990Z,97590.15
2023-04-21T12:01:11.033Z,97587.39
2023-04-21T12:03:44.352Z,97592.91
2023-04-21T12:06:24.417Z,97597.11
2023-04-21T12:09:05.592Z,97595.32
2023-04-21T12:11:38.918Z,97592.83
2023-04-21T12:14:12.020Z,97588.99
2023-04-21T12:16:44.938Z,97583.84
2023-04-21T12:19:26.935Z,97582.21
2023-04-21T12:22:00.167Z,97580.70
2023-04-21T12:24:34.361Z,97576.98
2023-04-21T12:27:09.965Z,97575.18
2023-04-21T12:29:43.728Z,97568.11
2023-04-21T12:32:18.781Z,97561.39
2023-04-21T12:34:51.670Z,97563.63
2023-04-21T12:37:24.261Z,97561.01
2023-04-21T12:39:57.692Z,97562.20
2023-04-21T12:42:33.821Z,97559.14
2023-04-21T12:45:08.780Z,97559.73
2023-04-21T12:47:45.531Z,97555.94
2023-04-21T12:50:19.754Z,97561.27
2023-04-21T12:52:55.604Z,97559.77
2023-04-21T12:55:40.182Z,97559.81
2023-04-21T12:58:20.570Z,97555.52
2023-04-21T13:01:04.987Z,97554.52
2023-04-21T13:03:47.838Z,97553.95
2023-04-21T13:06:30.649Z,97551.88
2023-04-21T13:09:09.657Z,97545.96
2023-04-21T13:11:52.690Z,97545.98
2023-04-21T13:14:37.368Z,97543.17
2023-04-21T13:17:22.742Z,97540.11
2023-04-21T13:20:10.402Z,97534.98
2023-04-21T13:22:57.710Z,97536.03
2023-04-21T13:25:52.866Z,97535.85
2023-04-21T13:28:40.713Z,97535.40
2023-04-21T13:31:27.016Z,97533.97
2023-04-21T13:34:17.295Z,97527.11
2023-04-21T13:37:02.981Z,97525.98
2023-04-21T13:39:48.517Z,97523.17
2023-04-21T13:42:27.874Z,97519.33
2023-04-21T13:45:00.495Z,97514.68
2023-04-21T13:47:36.435Z,97517.40
2023-04-21T13:50:10.705Z,97519.34
2023-04-21T13:52:43.838Z,97512.27
2023-04-21T13:55:14.614Z,97507.79
2023-04-21T13:57:47.290Z,97505.93
2023-04-21T14:00:21.357Z,97507.68
2023-04-21T14:02:57.492Z,97501.27
2023-04-21T14:05:30.387Z,97500.81
2023-04-21T14:08:03.468Z,97496.95
2023-04-21T14:10:36.198Z,97498.76
2023-04-21T14:13:12.783Z,97500.78
2023-04-21T14:15:50.200Z,97500.70
2023-04-21T14:18:21.521Z,97501.31
2023-04-21T14:20:54.687Z,97499.03
2023-04-21T14:23:27.817Z,97494.27
2023-04-21T14:26:00.585Z,97494.56
2023-04-21T14:28:36.350Z,97488.17
2023-04-21T14:31:09.165Z,97483.33
2023-04-21T14:33:41.790Z,97484.23
2023-04-21T14:36:14.534Z,97478.75
2023-04-21T14:38:47.444Z,97478.80
2023-04-21T14:41:20.800Z,97474.93
2023-04-21T14:43:56.799Z,97474.39
2023-04-21T14:46:29.975Z,97471.59
2023-04-21T14:49:03.629Z,97469.42
2023-04-21T14:51:44.324Z,97470.06
2023-04-21T14:54:18.510Z,97472.05
2023-04-21T14:57:03.366Z,97471.19
2023-04-21T14:59:47.094Z,97467.84
2023-04-21T15:02:20.924Z,97468.16
2023-04-21T15:04:55.578Z,97467.61
2023-04-21T15:07:28.158Z,97466.63
2023-04-21T15:10:02.752Z,97461.53
2023-04-21T15:12:36.578Z,97458.27
2023-04-21T15:15:10.805Z,97457.45
2023-04-21T15:17:44.782Z,97450.11
2023-04-21T15:20:36.871Z,97453.39
2023-04-21T15:23:16.944Z,97450.88
2023-04-21T15:25:49.709Z,97445.30
2023-04-21T15:28:22.921Z,97449.10
2023-04-21T15:30:54.637Z,97446.30
2023-04-21T15:33:29.209Z,97442.48
2023-04-21T15:36:02.092Z,97442.42
2023-04-21T15:38:38.556Z,97442.36
2023-04-21T15:41:14.100Z,97441.16
2023-04-21T15:43:46.681Z,97443.33
2023-04-21T15:46:19.577Z,97442.80
2023-04-21T15:48:52.300Z,97445.23
2023-04-21T15:51:27.141Z,97449.52
2023-04-21T15:54:00.278Z,97446.52
2023-04-21T15:56:34.748Z,97443.48
2023-04-21T15:59:08.834Z,97446.09
2023-04-21T16:01:41.614Z,97439.52
2023-04-21T16:04:14.305Z,97438.20
2023-04-21T16:06:49.316Z,97436.20
2023-04-21T16:09:22.925Z,97434.55
2023-04-21T16:11:57.092Z,97435.32
2023-04-21T16:14:39.382Z,97429.20
2023-04-21T16:17:20.136Z,97432.10
2023-04-21T16:19:51.201Z,97427.65
2023-04-21T16:22:24.161Z,97432.36
2023-04-21T16:24:59.109Z,97431.52
2023-04-21T16:27:34.501Z,97428.96
2023-04-21T16:30:08.739Z,97426.63
2023-04-21T16:32:41.789Z,97423.55
2023-04-21T16:35:14.979Z,97423.58
2023-04-21T16:37:49.232Z,97422.77
2023-04-21T16:40:22.534Z,97420.84
2023-04-21T16:42:55.639Z,97422.64
2023-04-21T16:45:29.728Z,97418.13
2023-04-21T16:48:02.807Z,97419.04
2023-04-21T16:50:38.086Z,97418.95
2023-04-21T16:53:11.522Z,97416.77
2023-04-21T16:55:44.108Z,97421.22
2023-04-21T16:58:17.183Z,97425.63
2023-04-21T17:00:49.687Z,97420.02
2023-04-21T17:03:22.588Z,97421.95
2023-04-21T17:05:55.452Z,97418.16
2023-04-21T17:08:28.317Z,97419.84
2023-04-21T17:11:00.476Z,97422.51
2023-04-21T17:13:35.028Z,97421.29
2023-04-21T17:16:08.660Z,97422.65
2023-04-21T17:18:41.705Z,97424.03
2023-04-21T17:21:14.225Z,97422.02
2023-04-21T17:23:47.406Z,97421.30
2023-04-21T17:26:19.873Z,97421.56
2023-04-21T17:28:52.729Z,97421.31
2023-04-21T17:31:25.683Z,97421.39
2023-04-21T17:33:58.804Z,97422.35
2023-04-21T17:36:32.990Z,97419.08
2023-04-21T17:39:05.873Z,97419.77
2023-04-21T17:41:38.948Z,97419.16
2023-04-21T17:44:11.802Z,97423.23
2023-04-21T17:46:45.205Z,97423.88
2023-04-21T17:49:18.618Z,97426.05
2023-04-21T17:51:52.736Z,97424.54
2023-04-21T17:54:26.310Z,97428.05
2023-04-21T17:56:57.103Z,97429.50
2023-04-21T17:59:30.489Z,97430.09
2023-04-21T18:02:05.776Z,97434.17
2023-04-21T18:04:39.174Z,97434.86
2023-04-21T18:07:12.430Z,97436.52
2023-04-21T18:09:49.140Z,97440.02
2023-04-21T18:12:22.325Z,97441.53
2023-04-21T18:14:55.517Z,97442.09
2023-04-21T18:17:28.177Z,97444.13
2023-04-21T18:20:01.413Z,97444.79
2023-04-21T18:22:34.371Z,97441.63
2023-04-21T18:25:12.492Z,97439.65
2023-04-21T18:27:47.953Z,97441.23
2023-04-21T18:30:21.854Z,97442.48
2023-04-21T18:32:56.655Z,97444.08
2023-04-21T18:35:36.900Z,97449.03
2023-04-21T18:38:13.919Z,97448.81
2023-04-21T18:40:52.151Z,97449.42
2023-04-21T18:43:26.929Z,97454.50
2023-04-21T18:46:02.050Z,97453.30
2023-04-21T18:48:36.292Z,97454.70
2023-04-21T18:51:13.486Z,97452.63
2023-04-21T18:53:47.642Z,97453.46
2023-04-21T18:56:22.419Z,97452.55
2023-04-21T18:59:00.913Z,97453.89
2023-04-21T19:01:34.435Z,97451.46
2023-04-21T19:04:10.296Z,97451.48
2023-04-21T19:06:44.599Z,97453.46
2023-04-21T19:09:17.559Z,97452.96
2023-04-21T19:11:51.260Z,97451.50
2023-04-21T19:14:24.191Z,97453.34
2023-04-21T19:16:58.928Z,97449.75
2023-04-21T19:19:31.881Z,97451.15
2023-04-21T19:22:07.067Z,97449.92
2023-04-21T19:24:39.938Z,97447.29
2023-04-21T19:27:15.186Z,97449.93
2023-04-21T19:29:48.261Z,97448.79
2023-04-21T19:32:21.710Z,97447.43
2023-04-21T19:34:52.432Z,97449.06
2023-04-21T19:37:26.267Z,97445.55
2023-04-21T19:39:59.162Z,97447.02
2023-04-21T19:42:32.923Z,97449.56
2023-04-21T19:45:09.178Z,97446.64
2023-04-21T19:47:43.600Z,97451.31
2023-04-21T19:50:16.929Z,97448.71
2023-04-21T19:52:50.774Z,97449.26
2023-04-21T19:55:23.615Z,97449.13
2023-04-21T19:57:58.287Z,97451.79
2023-04-21T20:00:32.043Z,97446.92
2023-04-21T20:03:08.152Z,97447.33
2023-04-21T20:05:41.094Z,97445.02
2023-04-21T20:08:16.734Z,97448.11
2023-04-21T20:10:49.490Z,97446.42
2023-04-21T20:13:22.226Z,97447.02
2023-04-21T20:15:57.682Z,97450.59
2023-04-21T20:18:34.123Z,97450.38
2023-04-21T20:21:06.952Z,97454.83
2023-04-21T20:23:39.450Z,97452.38
2023-04-21T20:26:14.313Z,97459.26
2023-04-21T20:28:47.157Z,97459.56
2023-04-21T20:31:24.082Z,97459.47
2023-04-21T20:33:56.895Z,97459.86
2023-04-21T20:36:29.844Z,97458.05
2023-04-21T20:39:03.154Z,97455.20
2023-04-21T20:41:36.636Z,97459.71
2023-04-21T20:44:12.655Z,97459.80
2023-04-21T20:46:45.342Z,97453.96
2023-04-21T20:49:17.929Z,97456.42
2023-04-21T20:51:57.756Z,97460.69
2023-04-21T20:54:30.972Z,97458.87
2023-04-21T20:57:03.627Z,97460.88
2023-04-21T20:59:37.146Z,97458.55
2023-04-21T21:02:10.156Z,97456.98
2023-04-21T21:04:42.895Z,97460.86
2023-04-21T21:07:15.467Z,97460.94
2023-04-21T21:09:48.612Z,97464.71
2023-04-21T21:12:22.126Z,97462.41
2023-04-21T21:14:55.304Z,97462.95
2023-04-21T21:17:28.155Z,97459.95
2023-04-21T21:20:02.160Z,97458.23
2023-04-21T21:22:35.069Z,97458.57
2023-04-21T21:25:08.238Z,97454.66
2023-04-21T21:27:41.103Z,97457.84
2023-04-21T21:30:15.172Z,97455.88
2023-04-21T21:32:48.092Z,97457.23
2023-04-21T21:35:21.664Z,97454.93
2023-04-21T21:37:54.352Z,97456.19
2023-04-21T21:40:27.208Z,97455.45
2023-04-21T21:42:59.830Z,97458.60
2023-04-21T21:45:32.619Z,97454.73
2023-04-21T21:48:05.419Z,97457.52
2023-04-21T21:50:38.035Z,97460.67
2023-04-21T21:53:11.450Z,97463.65
2023-04-21T21:55:44.096Z,97460.40
2023-04-21T21:58:16.897Z,97459.48
2023-04-21T22:00:52.638Z,97463.72
2023-04-21T22:03:26.313Z,97464.86
2023-04-21T22:05:59.319Z,97463.67
2023-04-21T22:08:32.363Z,97460.46
2023-04-21T22:11:06.388Z,97465.21
2023-04-21T22:13:37.016Z,97462.77
2023-04-21T22:16:11.043Z,97465.84
2023-04-21T22:18:44.295Z,97462.89
2023-04-21T22:21:17.141Z,97464.46
2023-04-21T22:23:49.574Z,97466.48
2023-04-21T22:26:22.252Z,97466.63
2023-04-21T22:28:55.272Z,97464.04
2023-04-21T22:31:28.062Z,97460.98
2023-04-21T22:34:00.796Z,97464.08
2023-04-21T22:36:33.983Z,97462.01
2023-04-21T22:39:08.984Z,97468.05
2023-04-21T22:41:41.771Z,97471.00
2023-04-21T22:44:14.380Z,97469.42
2023-04-21T22:46:47.096Z,97464.27
2023-04-21T22:49:19.991Z,97463.86
2023-04-21T22:51:55.776Z,97464.38
2023-04-21T22:54:28.895Z,97463.40
2023-04-21T22:57:02.571Z,97461.25
2023-04-21T22:59:33.750Z,97461.86
2023-04-21T23:02:06.845Z,97463.85
2023-04-21T23:04:39.355Z,97461.48
2023-04-21T23:07:13.633Z,97463.18
2023-04-21T23:09:46.492Z,97457.05
2023-04-21T23:12:19.042Z,97456.91
2023-04-21T23:14:51.844Z,97457.34
2023-04-21T23:17:24.516Z,97451.31
2023-04-21T23:19:57.775Z,97451.33
2023-04-21T23:22:30.810Z,97454.48
2023-04-21T23:25:03.793Z,97455.34
2023-04-21T23:27:37.013Z,97453.10
2023-04-21T23:30:11.498Z,97451.75
2023-04-21T23:32:45.250Z,97452.30
2023-04-21T23:35:16.494Z,97444.66
2023-04-21T23:37:49.182Z,97446.90
2023-04-21T23:40:21.775Z,97445.36
2023-04-21T23:42:54.688Z,97446.27
2023-04-21T23:45:27.579Z,97447.02
2023-04-21T23:48:00.442Z,97448.73
2023-04-21T23:50:33.181Z,97451.69
2023-04-21T23:53:06.321Z,97450.36
2023-04-21T23:55:38.791Z,97448.88
2023-04-21T23:58:12.457Z,97448.64
